sensor_id;sensor_type;location;lat;lon;timestamp;temperature;humidity
38359;DHT22;42072;48.044;14.416;2022-12-29T00:00:19;-1.70;1.00
38359;DHT22;42072;48.044;14.416;2022-12-29T00:02:46;-1.70;1.00
38359;DHT22;42072;48.044;14.416;2022-12-29T00:05:14;-1.70;1.00
38359;DHT22;42072;48.044;14.416;2022-12-29T00:07:41;-1.60;1.00
38359;DHT22;42072;48.044;14.416;2022-12-29T00:10:08;-1.50;1.00
38359;DHT22;42072;48.044;14.416;2022-12-29T00:12:36;-1.50;1.00
38359;DHT22;42072;48.044;14.416;2022-12-29T00:15:21;-1.40;1.00
38359;DHT22;42072;48.044;14.416;2022-12-29T00:18:04;-1.40;1.00
38359;DHT22;42072;48.044;14.416;2022-12-29T00:20:37;-1.40;1.00
38359;DHT22;42072;48.044;14.416;2022-12-29T00:23:24;-1.30;1.00
38359;DHT22;42072;48.044;14.416;2022-12-29T00:26:16;-1.30;1.00
38359;DHT22;42072;48.044;14.416;2022-12-29T00:29:02;-1.30;1.00
38359;DHT22;42072;48.044;14.416;2022-12-29T00:31:49;-1.20;1.00
38359;DHT22;42072;48.044;14.416;2022-12-29T00:34:35;-1.20;1.00
38359;DHT22;42072;48.044;14.416;2022-12-29T00:37:20;-1.10;1.00
38359;DHT22;42072;48.044;14.416;2022-12-29T00:40:08;-1.10;1.00
38359;DHT22;42072;48.044;14.416;2022-12-29T00:42:53;-1.00;1.00
38359;DHT22;42072;48.044;14.416;2022-12-29T00:45:41;-1.00;1.00
38359;DHT22;42072;48.044;14.416;2022-12-29T00:48:08;-1.00;1.00
38359;DHT22;42072;48.044;14.416;2022-12-29T00:50:35;-1.00;1.00
38359;DHT22;42072;48.044;14.416;2022-12-29T00:53:03;-1.00;1.00
38359;DHT22;42072;48.044;14.416;2022-12-29T00:55:30;-1.00;1.00
38359;DHT22;42072;48.044;14.416;2022-12-29T00:57:57;-1.00;1.00
38359;DHT22;42072;48.044;14.416;2022-12-29T01:00:25;-1.00;1.00
38359;DHT22;42072;48.044;14.416;2022-12-29T01:02:52;-1.10;1.00
38359;DHT22;42072;48.044;14.416;2022-12-29T01:05:19;-1.00;1.00
38359;DHT22;42072;48.044;14.416;2022-12-29T01:07:46;-1.10;1.00
38359;DHT22;42072;48.044;14.416;2022-12-29T01:10:14;-1.10;1.00
38359;DHT22;42072;48.044;14.416;2022-12-29T01:12:43;-1.10;1.00
38359;DHT22;42072;48.044;14.416;2022-12-29T01:15:13;-1.10;1.00
38359;DHT22;42072;48.044;14.416;2022-12-29T01:17:41;-1.10;1.00
38359;DHT22;42072;48.044;14.416;2022-12-29T01:20:10;-1.00;1.00
38359;DHT22;42072;48.044;14.416;2022-12-29T01:22:38;-1.00;1.00
38359;DHT22;42072;48.044;14.416;2022-12-29T01:25:05;-1.00;1.00
38359;DHT22;42072;48.044;14.416;2022-12-29T01:27:33;-1.00;1.00
38359;DHT22;42072;48.044;14.416;2022-12-29T01:30:00;-1.00;1.00
38359;DHT22;42072;48.044;14.416;2022-12-29T01:32:27;-1.10;1.00
38359;DHT22;42072;48.044;14.416;2022-12-29T01:34:54;-1.00;1.00
38359;DHT22;42072;48.044;14.416;2022-12-29T01:37:22;-1.00;1.00
38359;DHT22;42072;48.044;14.416;2022-12-29T01:39:49;-1.00;1.00
38359;DHT22;42072;48.044;14.416;2022-12-29T01:42:18;-1.00;1.00
38359;DHT22;42072;48.044;14.416;2022-12-29T01:44:52;-1.10;1.00
38359;DHT22;42072;48.044;14.416;2022-12-29T01:47:45;-1.10;1.00
38359;DHT22;42072;48.044;14.416;2022-12-29T01:50:33;-1.10;1.00
38359;DHT22;42072;48.044;14.416;2022-12-29T01:53:09;-1.30;1.00
38359;DHT22;42072;48.044;14.416;2022-12-29T01:55:42;-1.40;1.00
38359;DHT22;42072;48.044;14.416;2022-12-29T01:58:11;-1.40;1.00
38359;DHT22;42072;48.044;14.416;2022-12-29T02:00:39;-1.40;1.00
38359;DHT22;42072;48.044;14.416;2022-12-29T02:03:07;-1.50;1.00
38359;DHT22;42072;48.044;14.416;2022-12-29T02:05:47;-1.40;1.00
38359;DHT22;42072;48.044;14.416;2022-12-29T02:08:15;-1.40;1.00
38359;DHT22;42072;48.044;14.416;2022-12-29T02:10:44;-1.30;1.00
38359;DHT22;42072;48.044;14.416;2022-12-29T02:13:14;-1.30;1.00
38359;DHT22;42072;48.044;14.416;2022-12-29T02:18:37;-1.30;1.00
38359;DHT22;42072;48.044;14.416;2022-12-29T02:29:49;-1.30;1.00
38359;DHT22;42072;48.044;14.416;2022-12-29T02:35:13;-1.30;1.00
38359;DHT22;42072;48.044;14.416;2022-12-29T02:37:55;-1.30;1.00
38359;DHT22;42072;48.044;14.416;2022-12-29T02:46:03;-1.40;1.00
38359;DHT22;42072;48.044;14.416;2022-12-29T02:48:46;-1.40;1.00
38359;DHT22;42072;48.044;14.416;2022-12-29T02:51:31;-1.40;1.00
38359;DHT22;42072;48.044;14.416;2022-12-29T02:54:00;-1.50;1.00
38359;DHT22;42072;48.044;14.416;2022-12-29T02:56:46;-1.50;1.00
38359;DHT22;42072;48.044;14.416;2022-12-29T02:59:13;-1.50;1.00
38359;DHT22;42072;48.044;14.416;2022-12-29T03:02:39;-1.50;1.00
38359;DHT22;42072;48.044;14.416;2022-12-29T03:10:37;-1.50;1.00
38359;DHT22;42072;48.044;14.416;2022-12-29T03:13:15;-1.60;1.00
38359;DHT22;42072;48.044;14.416;2022-12-29T03:16:18;-1.60;1.00
38359;DHT22;42072;48.044;14.416;2022-12-29T03:21:43;-1.60;1.00
38359;DHT22;42072;48.044;14.416;2022-12-29T03:24:35;-1.60;1.00
38359;DHT22;42072;48.044;14.416;2022-12-29T03:27:06;-1.60;1.00
38359;DHT22;42072;48.044;14.416;2022-12-29T03:29:40;-1.60;1.00
38359;DHT22;42072;48.044;14.416;2022-12-29T03:32:13;-1.60;1.00
38359;DHT22;42072;48.044;14.416;2022-12-29T03:34:44;-1.50;1.00
38359;DHT22;42072;48.044;14.416;2022-12-29T03:37:16;-1.40;1.00
38359;DHT22;42072;48.044;14.416;2022-12-29T03:39:45;-1.20;1.00
38359;DHT22;42072;48.044;14.416;2022-12-29T03:42:25;-1.20;1.00
38359;DHT22;42072;48.044;14.416;2022-12-29T03:44:56;-1.30;1.00
38359;DHT22;42072;48.044;14.416;2022-12-29T03:47:24;-1.20;1.00
38359;DHT22;42072;48.044;14.416;2022-12-29T03:49:52;-1.10;1.00
38359;DHT22;42072;48.044;14.416;2022-12-29T03:52:20;-1.10;1.00
38359;DHT22;42072;48.044;14.416;2022-12-29T03:54:47;-1.10;1.00
38359;DHT22;42072;48.044;14.416;2022-12-29T03:57:14;-1.20;1.00
38359;DHT22;42072;48.044;14.416;2022-12-29T03:59:41;-1.40;1.00
38359;DHT22;42072;48.044;14.416;2022-12-29T04:02:09;-1.40;1.00
38359;DHT22;42072;48.044;14.416;2022-12-29T04:04:36;-1.50;1.00
38359;DHT22;42072;48.044;14.416;2022-12-29T04:07:03;-1.50;1.00
38359;DHT22;42072;48.044;14.416;2022-12-29T04:09:31;-1.60;1.00
38359;DHT22;42072;48.044;14.416;2022-12-29T04:11:58;-1.50;1.00
38359;DHT22;42072;48.044;14.416;2022-12-29T04:14:25;-1.40;1.00
38359;DHT22;42072;48.044;14.416;2022-12-29T04:16:52;-1.40;1.00
38359;DHT22;42072;48.044;14.416;2022-12-29T04:19:19;-1.40;1.00
38359;DHT22;42072;48.044;14.416;2022-12-29T04:21:46;-1.50;1.00
38359;DHT22;42072;48.044;14.416;2022-12-29T04:24:14;-1.50;1.00
38359;DHT22;42072;48.044;14.416;2022-12-29T04:26:41;-1.50;1.00
38359;DHT22;42072;48.044;14.416;2022-12-29T04:29:08;-1.50;1.00
38359;DHT22;42072;48.044;14.416;2022-12-29T04:31:36;-1.50;1.00
38359;DHT22;42072;48.044;14.416;2022-12-29T04:34:03;-1.50;1.00
38359;DHT22;42072;48.044;14.416;2022-12-29T04:36:30;-1.50;1.00
38359;DHT22;42072;48.044;14.416;2022-12-29T04:38:57;-1.50;1.00
38359;DHT22;42072;48.044;14.416;2022-12-29T04:41:24;-1.50;1.00
38359;DHT22;42072;48.044;14.416;2022-12-29T04:43:52;-1.50;1.00
38359;DHT22;42072;48.044;14.416;2022-12-29T04:46:19;-1.50;1.00
38359;DHT22;42072;48.044;14.416;2022-12-29T04:48:46;-1.50;1.00
38359;DHT22;42072;48.044;14.416;2022-12-29T04:51:13;-1.50;1.00
38359;DHT22;42072;48.044;14.416;2022-12-29T04:53:41;-1.50;1.00
38359;DHT22;42072;48.044;14.416;2022-12-29T04:56:08;-1.50;1.00
38359;DHT22;42072;48.044;14.416;2022-12-29T04:58:36;-1.50;1.00
38359;DHT22;42072;48.044;14.416;2022-12-29T05:01:04;-1.50;1.00
38359;DHT22;42072;48.044;14.416;2022-12-29T05:03:31;-1.60;1.00
38359;DHT22;42072;48.044;14.416;2022-12-29T05:05:58;-1.60;1.00
38359;DHT22;42072;48.044;14.416;2022-12-29T05:08:26;-1.60;1.00
38359;DHT22;42072;48.044;14.416;2022-12-29T05:10:54;-1.70;1.00
38359;DHT22;42072;48.044;14.416;2022-12-29T05:13:21;-1.70;1.00
38359;DHT22;42072;48.044;14.416;2022-12-29T05:15:52;-1.70;1.00
38359;DHT22;42072;48.044;14.416;2022-12-29T05:18:20;-1.70;1.00
38359;DHT22;42072;48.044;14.416;2022-12-29T05:20:47;-1.70;1.00
38359;DHT22;42072;48.044;14.416;2022-12-29T05:23:14;-1.70;1.00
38359;DHT22;42072;48.044;14.416;2022-12-29T05:25:43;-1.80;1.00
38359;DHT22;42072;48.044;14.416;2022-12-29T05:28:13;-1.80;1.00
38359;DHT22;42072;48.044;14.416;2022-12-29T05:30:40;-1.90;1.00
38359;DHT22;42072;48.044;14.416;2022-12-29T05:33:07;-2.00;1.00
38359;DHT22;42072;48.044;14.416;2022-12-29T05:35:38;-2.10;1.00
38359;DHT22;42072;48.044;14.416;2022-12-29T05:38:05;-2.20;1.00
38359;DHT22;42072;48.044;14.416;2022-12-29T05:40:33;-2.20;1.00
38359;DHT22;42072;48.044;14.416;2022-12-29T05:43:00;-2.20;1.00
38359;DHT22;42072;48.044;14.416;2022-12-29T05:45:27;-2.10;1.00
38359;DHT22;42072;48.044;14.416;2022-12-29T05:47:55;-2.10;1.00
38359;DHT22;42072;48.044;14.416;2022-12-29T05:50:22;-2.20;1.00
38359;DHT22;42072;48.044;14.416;2022-12-29T05:52:49;-2.20;1.00
38359;DHT22;42072;48.044;14.416;2022-12-29T05:55:17;-2.20;1.00
38359;DHT22;42072;48.044;14.416;2022-12-29T05:57:45;-2.20;1.00
38359;DHT22;42072;48.044;14.416;2022-12-29T06:00:12;-2.20;1.00
38359;DHT22;42072;48.044;14.416;2022-12-29T06:02:40;-2.20;1.00
38359;DHT22;42072;48.044;14.416;2022-12-29T06:05:07;-2.20;1.00
38359;DHT22;42072;48.044;14.416;2022-12-29T06:07:34;-2.20;1.00
38359;DHT22;42072;48.044;14.416;2022-12-29T06:10:02;-2.20;1.00
38359;DHT22;42072;48.044;14.416;2022-12-29T06:12:29;-2.20;1.00
38359;DHT22;42072;48.044;14.416;2022-12-29T06:14:56;-2.20;1.00
38359;DHT22;42072;48.044;14.416;2022-12-29T06:17:23;-2.10;1.00
38359;DHT22;42072;48.044;14.416;2022-12-29T06:19:51;-2.10;1.00
38359;DHT22;42072;48.044;14.416;2022-12-29T06:22:18;-2.10;1.00
38359;DHT22;42072;48.044;14.416;2022-12-29T06:24:45;-1.90;1.00
38359;DHT22;42072;48.044;14.416;2022-12-29T06:27:12;-1.90;1.00
38359;DHT22;42072;48.044;14.416;2022-12-29T06:29:40;-1.80;1.00
38359;DHT22;42072;48.044;14.416;2022-12-29T06:32:08;-1.70;1.00
38359;DHT22;42072;48.044;14.416;2022-12-29T06:34:35;-1.80;1.00
38359;DHT22;42072;48.044;14.416;2022-12-29T06:37:03;-1.80;1.00
38359;DHT22;42072;48.044;14.416;2022-12-29T06:39:30;-1.80;1.00
38359;DHT22;42072;48.044;14.416;2022-12-29T06:41:57;-1.80;1.00
38359;DHT22;42072;48.044;14.416;2022-12-29T06:44:24;-1.80;1.00
38359;DHT22;42072;48.044;14.416;2022-12-29T06:46:51;-1.60;1.00
38359;DHT22;42072;48.044;14.416;2022-12-29T06:49:19;-1.70;1.00
38359;DHT22;42072;48.044;14.416;2022-12-29T06:51:46;-1.70;1.00
38359;DHT22;42072;48.044;14.416;2022-12-29T06:54:13;-1.70;1.00
38359;DHT22;42072;48.044;14.416;2022-12-29T06:56:41;-1.70;1.00
38359;DHT22;42072;48.044;14.416;2022-12-29T06:59:09;-1.60;1.00
38359;DHT22;42072;48.044;14.416;2022-12-29T07:01:36;-1.60;1.00
38359;DHT22;42072;48.044;14.416;2022-12-29T07:04:04;-1.20;1.00
38359;DHT22;42072;48.044;14.416;2022-12-29T07:06:31;-1.20;1.00
38359;DHT22;42072;48.044;14.416;2022-12-29T07:08:59;-1.20;1.00
38359;DHT22;42072;48.044;14.416;2022-12-29T07:11:26;-1.10;1.00
38359;DHT22;42072;48.044;14.416;2022-12-29T07:13:53;-1.10;1.00
38359;DHT22;42072;48.044;14.416;2022-12-29T07:16:21;-1.20;1.00
38359;DHT22;42072;48.044;14.416;2022-12-29T07:18:49;-1.30;1.00
38359;DHT22;42072;48.044;14.416;2022-12-29T07:21:17;-1.20;1.00
38359;DHT22;42072;48.044;14.416;2022-12-29T07:23:44;-1.20;1.00
38359;DHT22;42072;48.044;14.416;2022-12-29T07:26:14;-1.20;1.00
38359;DHT22;42072;48.044;14.416;2022-12-29T07:28:41;-1.20;1.00
38359;DHT22;42072;48.044;14.416;2022-12-29T07:31:20;-1.20;1.00
38359;DHT22;42072;48.044;14.416;2022-12-29T07:33:48;-1.20;1.00
38359;DHT22;42072;48.044;14.416;2022-12-29T07:36:16;-1.20;1.00
38359;DHT22;42072;48.044;14.416;2022-12-29T07:38:43;-1.10;1.00
38359;DHT22;42072;48.044;14.416;2022-12-29T07:41:11;-1.00;1.00
38359;DHT22;42072;48.044;14.416;2022-12-29T07:43:38;-0.90;1.00
38359;DHT22;42072;48.044;14.416;2022-12-29T07:46:05;-0.80;1.00
38359;DHT22;42072;48.044;14.416;2022-12-29T07:48:33;-0.70;1.00
38359;DHT22;42072;48.044;14.416;2022-12-29T07:51:02;-0.70;1.00
38359;DHT22;42072;48.044;14.416;2022-12-29T07:53:29;-0.60;1.00
38359;DHT22;42072;48.044;14.416;2022-12-29T07:55:57;-0.50;1.00
38359;DHT22;42072;48.044;14.416;2022-12-29T07:58:24;-0.40;1.00
38359;DHT22;42072;48.044;14.416;2022-12-29T08:00:56;-0.30;1.00
38359;DHT22;42072;48.044;14.416;2022-12-29T08:03:24;-0.20;1.00
38359;DHT22;42072;48.044;14.416;2022-12-29T08:05:52;-0.10;1.00
38359;DHT22;42072;48.044;14.416;2022-12-29T08:08:20;-0.10;1.00
38359;DHT22;42072;48.044;14.416;2022-12-29T08:10:47;0.10;1.00
38359;DHT22;42072;48.044;14.416;2022-12-29T08:13:14;0.10;1.00
38359;DHT22;42072;48.044;14.416;2022-12-29T08:15:41;0.10;1.00
38359;DHT22;42072;48.044;14.416;2022-12-29T08:18:09;0.20;1.00
38359;DHT22;42072;48.044;14.416;2022-12-29T08:20:36;0.30;1.00
38359;DHT22;42072;48.044;14.416;2022-12-29T08:23:03;0.40;1.00
38359;DHT22;42072;48.044;14.416;2022-12-29T08:25:30;0.40;1.00
38359;DHT22;42072;48.044;14.416;2022-12-29T08:27:57;0.50;1.00
38359;DHT22;42072;48.044;14.416;2022-12-29T08:30:24;0.60;1.00
38359;DHT22;42072;48.044;14.416;2022-12-29T08:32:52;0.60;1.00
38359;DHT22;42072;48.044;14.416;2022-12-29T08:35:19;0.70;1.00
38359;DHT22;42072;48.044;14.416;2022-12-29T08:37:46;0.80;1.00
38359;DHT22;42072;48.044;14.416;2022-12-29T08:40:13;1.10;1.00
38359;DHT22;42072;48.044;14.416;2022-12-29T08:42:41;1.50;1.00
38359;DHT22;42072;48.044;14.416;2022-12-29T08:45:08;1.70;99.90
38359;DHT22;42072;48.044;14.416;2022-12-29T08:47:36;1.90;99.90
38359;DHT22;42072;48.044;14.416;2022-12-29T08:50:03;2.10;99.90
38359;DHT22;42072;48.044;14.416;2022-12-29T08:52:31;2.30;99.90
38359;DHT22;42072;48.044;14.416;2022-12-29T08:54:58;2.40;99.90
38359;DHT22;42072;48.044;14.416;2022-12-29T08:57:25;2.50;61.10
38359;DHT22;42072;48.044;14.416;2022-12-29T08:59:52;2.50;12.70
38359;DHT22;42072;48.044;14.416;2022-12-29T09:02:19;2.60;1.00
38359;DHT22;42072;48.044;14.416;2022-12-29T09:04:51;2.50;1.00
38359;DHT22;42072;48.044;14.416;2022-12-29T09:07:18;2.40;1.00
38359;DHT22;42072;48.044;14.416;2022-12-29T09:09:45;2.40;1.00
38359;DHT22;42072;48.044;14.416;2022-12-29T09:12:13;2.50;1.00
38359;DHT22;42072;48.044;14.416;2022-12-29T09:14:40;2.50;4.20
38359;DHT22;42072;48.044;14.416;2022-12-29T09:17:07;2.70;9.30
38359;DHT22;42072;48.044;14.416;2022-12-29T09:19:52;2.80;3.40
38359;DHT22;42072;48.044;14.416;2022-12-29T09:22:20;3.00;1.50
38359;DHT22;42072;48.044;14.416;2022-12-29T09:24:47;3.10;1.00
38359;DHT22;42072;48.044;14.416;2022-12-29T09:27:14;3.00;1.00
38359;DHT22;42072;48.044;14.416;2022-12-29T09:29:41;3.00;1.00
38359;DHT22;42072;48.044;14.416;2022-12-29T09:32:08;3.20;1.00
38359;DHT22;42072;48.044;14.416;2022-12-29T09:34:42;3.20;1.00
38359;DHT22;42072;48.044;14.416;2022-12-29T09:37:10;3.30;1.00
38359;DHT22;42072;48.044;14.416;2022-12-29T09:39:37;3.40;1.00
38359;DHT22;42072;48.044;14.416;2022-12-29T09:45:04;4.00;1.00
38359;DHT22;42072;48.044;14.416;2022-12-29T09:47:34;4.30;1.00
38359;DHT22;42072;48.044;14.416;2022-12-29T09:50:14;4.70;1.00
38359;DHT22;42072;48.044;14.416;2022-12-29T09:52:48;5.10;1.00
38359;DHT22;42072;48.044;14.416;2022-12-29T09:55:23;5.50;1.00
38359;DHT22;42072;48.044;14.416;2022-12-29T09:57:56;5.90;99.90
38359;DHT22;42072;48.044;14.416;2022-12-29T10:00:43;6.20;99.90
38359;DHT22;42072;48.044;14.416;2022-12-29T10:03:24;6.50;99.90
38359;DHT22;42072;48.044;14.416;2022-12-29T10:06:13;6.60;99.90
38359;DHT22;42072;48.044;14.416;2022-12-29T10:16:56;6.40;99.90
38359;DHT22;42072;48.044;14.416;2022-12-29T10:24:47;6.10;99.90
38359;DHT22;42072;48.044;14.416;2022-12-29T10:27:16;6.10;99.90
38359;DHT22;42072;48.044;14.416;2022-12-29T10:29:56;6.00;99.90
38359;DHT22;42072;48.044;14.416;2022-12-29T10:32:36;6.10;99.90
38359;DHT22;42072;48.044;14.416;2022-12-29T10:38:44;6.00;99.90
38359;DHT22;42072;48.044;14.416;2022-12-29T10:41:18;5.90;99.90
38359;DHT22;42072;48.044;14.416;2022-12-29T10:43:54;5.90;99.90
38359;DHT22;42072;48.044;14.416;2022-12-29T10:46:27;5.90;99.90
38359;DHT22;42072;48.044;14.416;2022-12-29T10:48:56;5.90;99.90
38359;DHT22;42072;48.044;14.416;2022-12-29T10:51:36;6.10;99.90
38359;DHT22;42072;48.044;14.416;2022-12-29T10:54:14;6.10;99.90
38359;DHT22;42072;48.044;14.416;2022-12-29T10:56:52;6.20;99.90
38359;DHT22;42072;48.044;14.416;2022-12-29T10:59:23;6.10;99.90
38359;DHT22;42072;48.044;14.416;2022-12-29T11:05:02;6.40;99.90
38359;DHT22;42072;48.044;14.416;2022-12-29T11:07:34;6.40;99.90
38359;DHT22;42072;48.044;14.416;2022-12-29T11:10:29;6.10;99.90
38359;DHT22;42072;48.044;14.416;2022-12-29T11:13:03;5.90;99.90
38359;DHT22;42072;48.044;14.416;2022-12-29T11:15:44;5.70;99.90
38359;DHT22;42072;48.044;14.416;2022-12-29T11:20:55;5.80;99.90
38359;DHT22;42072;48.044;14.416;2022-12-29T11:28:38;5.90;99.90
38359;DHT22;42072;48.044;14.416;2022-12-29T11:31:08;5.90;99.90
38359;DHT22;42072;48.044;14.416;2022-12-29T11:33:38;5.90;99.90
38359;DHT22;42072;48.044;14.416;2022-12-29T11:36:17;5.70;99.90
38359;DHT22;42072;48.044;14.416;2022-12-29T11:38:49;5.70;99.90
38359;DHT22;42072;48.044;14.416;2022-12-29T11:41:27;5.60;99.90
38359;DHT22;42072;48.044;14.416;2022-12-29T11:43:58;5.60;99.90
38359;DHT22;42072;48.044;14.416;2022-12-29T11:46:34;5.60;99.90
38359;DHT22;42072;48.044;14.416;2022-12-29T11:49:04;5.90;99.90
38359;DHT22;42072;48.044;14.416;2022-12-29T11:51:53;6.10;99.90
38359;DHT22;42072;48.044;14.416;2022-12-29T11:54:36;6.50;99.90
38359;DHT22;42072;48.044;14.416;2022-12-29T11:57:15;6.80;99.90
38359;DHT22;42072;48.044;14.416;2022-12-29T11:59:55;6.80;99.90
38359;DHT22;42072;48.044;14.416;2022-12-29T12:02:32;6.90;99.90
38359;DHT22;42072;48.044;14.416;2022-12-29T12:05:17;7.00;99.90
38359;DHT22;42072;48.044;14.416;2022-12-29T12:07:52;7.10;99.90
38359;DHT22;42072;48.044;14.416;2022-12-29T12:10:28;7.30;99.90
38359;DHT22;42072;48.044;14.416;2022-12-29T12:13:23;7.50;99.90
38359;DHT22;42072;48.044;14.416;2022-12-29T12:16:17;7.80;99.90
38359;DHT22;42072;48.044;14.416;2022-12-29T12:19:04;8.00;99.90
38359;DHT22;42072;48.044;14.416;2022-12-29T12:21:41;8.10;99.90
38359;DHT22;42072;48.044;14.416;2022-12-29T12:29:59;7.60;74.70
38359;DHT22;42072;48.044;14.416;2022-12-29T12:35:16;7.70;71.20
38359;DHT22;42072;48.044;14.416;2022-12-29T12:38:18;7.80;60.10
38359;DHT22;42072;48.044;14.416;2022-12-29T12:40:54;7.80;64.00
38359;DHT22;42072;48.044;14.416;2022-12-29T12:51:56;7.90;66.40
38359;DHT22;42072;48.044;14.416;2022-12-29T12:55:00;7.80;74.90
38359;DHT22;42072;48.044;14.416;2022-12-29T13:15:51;8.10;78.60
38359;DHT22;42072;48.044;14.416;2022-12-29T13:18:24;8.00;83.10
38359;DHT22;42072;48.044;14.416;2022-12-29T13:26:43;8.00;92.20
38359;DHT22;42072;48.044;14.416;2022-12-29T13:31:52;8.10;92.30
38359;DHT22;42072;48.044;14.416;2022-12-29T13:34:47;8.00;88.60
38359;DHT22;42072;48.044;14.416;2022-12-29T13:37:12;8.10;85.40
38359;DHT22;42072;48.044;14.416;2022-12-29T13:39:51;8.20;83.20
38359;DHT22;42072;48.044;14.416;2022-12-29T13:42:19;8.20;79.60
38359;DHT22;42072;48.044;14.416;2022-12-29T13:45:10;8.10;83.30
38359;DHT22;42072;48.044;14.416;2022-12-29T13:50:21;7.90;98.80
38359;DHT22;42072;48.044;14.416;2022-12-29T13:55:32;7.70;95.90
38359;DHT22;42072;48.044;14.416;2022-12-29T14:01:08;7.30;99.90
38359;DHT22;42072;48.044;14.416;2022-12-29T14:06:25;7.20;99.90
38359;DHT22;42072;48.044;14.416;2022-12-29T14:09:03;7.10;99.90
38359;DHT22;42072;48.044;14.416;2022-12-29T14:11:36;6.90;99.90
38359;DHT22;42072;48.044;14.416;2022-12-29T14:14:23;6.80;99.90
38359;DHT22;42072;48.044;14.416;2022-12-29T14:16:52;6.80;99.90
38359;DHT22;42072;48.044;14.416;2022-12-29T14:19:38;6.60;99.90
38359;DHT22;42072;48.044;14.416;2022-12-29T14:22:09;6.50;99.90
38359;DHT22;42072;48.044;14.416;2022-12-29T14:24:41;6.50;99.90
38359;DHT22;42072;48.044;14.416;2022-12-29T14:34:58;6.10;99.90
38359;DHT22;42072;48.044;14.416;2022-12-29T14:37:31;6.00;99.90
38359;DHT22;42072;48.044;14.416;2022-12-29T14:42:32;5.70;99.90
38359;DHT22;42072;48.044;14.416;2022-12-29T14:47:49;5.70;99.90
38359;DHT22;42072;48.044;14.416;2022-12-29T14:50:30;5.70;99.90
38359;DHT22;42072;48.044;14.416;2022-12-29T14:53:04;5.70;99.90
38359;DHT22;42072;48.044;14.416;2022-12-29T14:55:47;5.60;99.90
38359;DHT22;42072;48.044;14.416;2022-12-29T14:58:27;5.50;99.90
38359;DHT22;42072;48.044;14.416;2022-12-29T15:00:56;5.50;99.90
38359;DHT22;42072;48.044;14.416;2022-12-29T15:03:29;5.50;99.90
38359;DHT22;42072;48.044;14.416;2022-12-29T15:06:08;5.40;99.90
38359;DHT22;42072;48.044;14.416;2022-12-29T15:08:45;5.30;99.90
38359;DHT22;42072;48.044;14.416;2022-12-29T15:14:03;5.30;99.90
38359;DHT22;42072;48.044;14.416;2022-12-29T15:16:51;5.30;99.90
38359;DHT22;42072;48.044;14.416;2022-12-29T15:19:23;5.20;99.90
38359;DHT22;42072;48.044;14.416;2022-12-29T15:21:55;5.30;99.90
38359;DHT22;42072;48.044;14.416;2022-12-29T15:24:24;5.30;99.90
38359;DHT22;42072;48.044;14.416;2022-12-29T15:26:53;5.20;99.90
38359;DHT22;42072;48.044;14.416;2022-12-29T15:29:39;5.10;99.90
38359;DHT22;42072;48.044;14.416;2022-12-29T15:34:45;5.20;99.90
38359;DHT22;42072;48.044;14.416;2022-12-29T15:37:25;5.20;99.90
38359;DHT22;42072;48.044;14.416;2022-12-29T15:39:54;5.10;99.90
38359;DHT22;42072;48.044;14.416;2022-12-29T15:45:14;5.00;99.90
38359;DHT22;42072;48.044;14.416;2022-12-29T15:47:45;5.00;99.90
38359;DHT22;42072;48.044;14.416;2022-12-29T15:50:29;5.00;99.90
38359;DHT22;42072;48.044;14.416;2022-12-29T15:52:58;4.90;99.90
38359;DHT22;42072;48.044;14.416;2022-12-29T15:55:37;4.70;99.90
38359;DHT22;42072;48.044;14.416;2022-12-29T15:58:19;4.70;99.90
38359;DHT22;42072;48.044;14.416;2022-12-29T16:00:49;4.60;99.90
38359;DHT22;42072;48.044;14.416;2022-12-29T16:03:17;4.60;99.90
38359;DHT22;42072;48.044;14.416;2022-12-29T16:05:52;4.50;99.90
38359;DHT22;42072;48.044;14.416;2022-12-29T16:08:35;4.60;99.90
38359;DHT22;42072;48.044;14.416;2022-12-29T16:11:26;4.50;99.90
38359;DHT22;42072;48.044;14.416;2022-12-29T16:13:55;4.40;99.90
38359;DHT22;42072;48.044;14.416;2022-12-29T16:16:29;4.30;99.90
38359;DHT22;42072;48.044;14.416;2022-12-29T16:18:58;4.20;99.90
38359;DHT22;42072;48.044;14.416;2022-12-29T16:21:33;4.20;99.90
38359;DHT22;42072;48.044;14.416;2022-12-29T16:24:07;4.20;1.00
38359;DHT22;42072;48.044;14.416;2022-12-29T16:26:36;4.10;1.00
38359;DHT22;42072;48.044;14.416;2022-12-29T16:29:06;4.10;1.00
38359;DHT22;42072;48.044;14.416;2022-12-29T16:31:49;4.00;1.00
38359;DHT22;42072;48.044;14.416;2022-12-29T16:34:24;3.80;1.00
38359;DHT22;42072;48.044;14.416;2022-12-29T16:39:28;3.80;1.00
38359;DHT22;42072;48.044;14.416;2022-12-29T16:41:56;3.60;1.00
38359;DHT22;42072;48.044;14.416;2022-12-29T16:44:29;3.40;1.00
38359;DHT22;42072;48.044;14.416;2022-12-29T16:47:00;3.20;1.00
38359;DHT22;42072;48.044;14.416;2022-12-29T16:49:31;3.10;1.00
38359;DHT22;42072;48.044;14.416;2022-12-29T16:51:59;3.10;1.00
38359;DHT22;42072;48.044;14.416;2022-12-29T16:54:35;3.10;1.00
38359;DHT22;42072;48.044;14.416;2022-12-29T16:57:04;3.10;1.00
38359;DHT22;42072;48.044;14.416;2022-12-29T16:59:37;3.00;1.00
38359;DHT22;42072;48.044;14.416;2022-12-29T17:02:13;2.80;1.00
38359;DHT22;42072;48.044;14.416;2022-12-29T17:04:41;2.80;1.00
38359;DHT22;42072;48.044;14.416;2022-12-29T17:07:21;2.70;1.00
38359;DHT22;42072;48.044;14.416;2022-12-29T17:09:49;2.60;1.00
38359;DHT22;42072;48.044;14.416;2022-12-29T17:12:22;2.50;1.00
38359;DHT22;42072;48.044;14.416;2022-12-29T17:17:43;2.30;1.00
38359;DHT22;42072;48.044;14.416;2022-12-29T17:22:44;2.10;1.00
38359;DHT22;42072;48.044;14.416;2022-12-29T17:25:13;2.10;11.50
38359;DHT22;42072;48.044;14.416;2022-12-29T17:30:16;2.00;38.70
38359;DHT22;42072;48.044;14.416;2022-12-29T17:32:56;2.00;55.50
38359;DHT22;42072;48.044;14.416;2022-12-29T17:35:24;2.00;80.40
38359;DHT22;42072;48.044;14.416;2022-12-29T17:37:52;1.90;94.90
38359;DHT22;42072;48.044;14.416;2022-12-29T17:40:32;1.90;99.90
38359;DHT22;42072;48.044;14.416;2022-12-29T17:42:59;1.90;99.90
38359;DHT22;42072;48.044;14.416;2022-12-29T17:45:33;1.80;99.90
38359;DHT22;42072;48.044;14.416;2022-12-29T17:48:14;1.80;99.90
38359;DHT22;42072;48.044;14.416;2022-12-29T17:50:41;1.70;99.90
38359;DHT22;42072;48.044;14.416;2022-12-29T17:53:20;1.60;99.90
38359;DHT22;42072;48.044;14.416;2022-12-29T17:55:48;1.60;99.90
38359;DHT22;42072;48.044;14.416;2022-12-29T17:58:18;1.40;99.90
38359;DHT22;42072;48.044;14.416;2022-12-29T18:00:47;1.30;99.90
38359;DHT22;42072;48.044;14.416;2022-12-29T18:03:22;1.20;99.90
38359;DHT22;42072;48.044;14.416;2022-12-29T18:05:51;1.10;99.90
38359;DHT22;42072;48.044;14.416;2022-12-29T18:08:18;1.20;99.90
38359;DHT22;42072;48.044;14.416;2022-12-29T18:10:46;1.20;99.90
38359;DHT22;42072;48.044;14.416;2022-12-29T18:13:31;1.20;99.90
38359;DHT22;42072;48.044;14.416;2022-12-29T18:16:12;1.40;99.90
38359;DHT22;42072;48.044;14.416;2022-12-29T18:18:40;1.50;99.90
38359;DHT22;42072;48.044;14.416;2022-12-29T18:21:14;1.50;99.90
38359;DHT22;42072;48.044;14.416;2022-12-29T18:23:42;1.70;99.90
38359;DHT22;42072;48.044;14.416;2022-12-29T18:26:21;1.70;99.90
38359;DHT22;42072;48.044;14.416;2022-12-29T18:28:55;1.70;99.90